Terminal Aerodrome Forecast
Issued by NWS Sioux Falls, SD

Home | Current Version | Previous Version | Graphics & Text | Print | Product List | Glossary On
Versions: 1 2 3 4 5 6 7 8 9 10 11 12 13 14 15
977
FTUS43 KFSD 212320
TAFHON
TAF
KHON 212320Z 2200/2224 15015KT P6SM FEW250
     FM220600 15012KT P6SM FEW250 WS015/17042KT
     FM221200 15013KT P6SM BKN060
     FM221400 15015G23KT P6SM BKN030
     FM221600 15018G26KT P6SM BKN035=

USA.gov is the U.S. government's official web portal to all federal, state and local government web resources and services.